Time;durP1;ratioP1;P1;durP2;ratioP2;P2;SDS_P1;SDS_P2;PMS_P1;PMS_P2;Temp;Humidity;BMP_temperature;BMP_pressure;BME280_temperature;BME280_humidity;BME280_pressure;Samples;Min_cycle;Max_cycle;Signal;HPM_P1;HPM_P2
2022/10/20 00:00:56;;;;;;;3.38;2.20;;;7.10;99.90;;;;;;4937910;29;20039;-75
2022/10/20 00:03:22;;;;;;;4.13;1.73;;;7.00;99.90;;;;;;4922441;29;20071;-75
2022/10/20 00:05:48;;;;;;;2.90;1.77;;;8.20;99.90;;;;;;4922064;29;20122;-75
2022/10/20 00:08:14;;;;;;;2.88;1.90;;;7.00;99.90;;;;;;4921999;29;20122;-75
2022/10/20 00:10:39;;;;;;;3.35;2.25;;;6.90;99.90;;;;;;4906296;29;20134;-75
2022/10/20 00:13:05;;;;;;;4.75;2.03;;;6.90;99.90;;;;;;4906221;29;20075;-74
2022/10/20 00:15:31;;;;;;;4.70;1.73;;;6.90;99.90;;;;;;4921926;29;20070;-75
2022/10/20 00:17:57;;;;;;;4.60;2.28;;;6.90;99.90;;;;;;4921908;29;20044;-75
2022/10/20 00:20:22;;;;;;;4.43;1.95;;;7.60;99.90;;;;;;4921782;29;20484;-75
2022/10/20 00:22:48;;;;;;;3.90;2.33;;;6.80;99.90;;;;;;4921808;29;20043;-75
2022/10/20 00:25:14;;;;;;;2.70;1.60;;;6.80;99.90;;;;;;4937635;29;20043;-75
2022/10/20 00:27:40;;;;;;;3.88;1.92;;;6.80;99.90;;;;;;4937821;29;20443;-75
2022/10/20 00:30:06;;;;;;;4.57;1.77;;;6.70;99.90;;;;;;4905793;29;20052;-75
2022/10/20 00:32:31;;;;;;;3.47;1.67;;;6.70;99.90;;;;;;4936263;29;20126;-75
2022/10/20 00:34:57;;;;;;;4.10;1.67;;;7.90;99.90;;;;;;4921544;29;20084;-75
2022/10/20 00:37:23;;;;;;;3.28;1.73;;;6.80;99.90;;;;;;4937659;29;20050;-75
2022/10/20 00:39:49;;;;;;;2.50;1.83;;;6.80;99.90;;;;;;4905856;29;20135;-75
2022/10/20 00:42:17;;;;;;;5.45;2.33;;;6.70;99.90;;;;;;4921440;29;20047;-75
2022/10/20 00:44:49;;;;;;;3.75;2.20;;;6.70;99.90;;;;;;4937511;29;20535;-75
2022/10/20 00:47:23;;;;;;;4.28;2.05;;;6.70;99.90;;;;;;4921360;29;20039;-75
2022/10/20 00:49:50;;;;;;;5.40;2.03;;;6.70;99.90;;;;;;4936962;29;20063;-75
2022/10/20 00:52:19;;;;;;;2.83;1.88;;;6.70;99.90;;;;;;4921476;29;20047;-75
2022/10/20 00:54:45;;;;;;;4.38;2.25;;;7.10;99.90;;;;;;4937033;29;20044;-75
2022/10/20 00:57:11;;;;;;;2.85;1.60;;;6.70;99.90;;;;;;4937335;29;20044;-75
2022/10/20 00:59:38;;;;;;;2.67;1.40;;;6.70;99.90;;;;;;4936894;29;20105;-75
2022/10/20 01:02:06;;;;;;;2.65;1.55;;;6.70;99.90;;;;;;4962098;23;20056;-77
2022/10/20 01:13:57;;;;;;;4.75;2.10;;;6.60;99.90;;;;;;5016923;23;20047;-77
2022/10/20 01:16:40;;;;;;;5.47;2.17;;;6.60;99.90;;;;;;4939895;29;20466;-77
2022/10/20 01:19:18;;;;;;;5.07;1.98;;;6.60;99.90;;;;;;4939700;29;20114;-77
2022/10/20 01:22:10;;;;;;;2.92;1.90;;;6.60;99.90;;;;;;4939762;29;20078;-77
2022/10/20 01:24:56;;;;;;;3.03;1.80;;;7.10;99.90;;;;;;4936021;29;20051;-77
2022/10/20 01:30:22;;;;;;;2.72;1.65;;;6.40;99.90;;;;;;5112471;23;20123;-75
2022/10/20 01:33:22;;;;;;;4.88;1.98;;;6.40;99.90;;;;;;4908363;29;20401;-75
2022/10/20 01:36:09;;;;;;;3.53;1.75;;;6.50;99.90;;;;;;4939713;29;20475;-75
2022/10/20 01:39:01;;;;;;;5.00;2.22;;;6.40;99.90;;;;;;4923678;29;20462;-75
2022/10/20 01:41:41;;;;;;;3.50;2.20;;;6.50;99.90;;;;;;4938654;29;20212;-75
2022/10/20 01:47:09;;;;;;;4.15;1.38;;;6.40;99.90;;;;;;5138805;23;20057;-71
2022/10/20 01:49:35;;;;;;;2.50;1.48;;;6.50;99.90;;;;;;4923677;29;20090;-72
2022/10/20 01:52:01;;;;;;;3.95;1.63;;;6.80;99.90;;;;;;4923367;29;20126;-72
2022/10/20 01:54:29;;;;;;;3.40;1.90;;;7.00;99.90;;;;;;4939591;29;20039;-72
2022/10/20 01:57:19;;;;;;;2.97;1.50;;;6.30;99.90;;;;;;4907842;29;20039;-72
2022/10/20 01:59:45;;;;;;;2.57;1.57;;;6.30;99.90;;;;;;4938999;29;20160;-71
2022/10/20 02:07:29;;;;;;;3.30;1.65;;;6.30;99.90;;;;;;4551084;23;20047;-60
2022/10/20 02:10:05;;;;;;;3.88;1.77;;;6.30;99.90;;;;;;4956175;29;20058;-60
2022/10/20 02:12:36;;;;;;;7.88;2.15;;;6.40;99.90;;;;;;4956287;29;20050;-60
2022/10/20 02:15:04;;;;;;;2.45;1.52;;;7.00;99.90;;;;;;4956259;29;20496;-60
2022/10/20 02:17:33;;;;;;;7.45;2.10;;;6.30;99.90;;;;;;4938661;29;20058;-60
2022/10/20 02:19:58;;;;;;;4.90;1.98;;;6.30;99.90;;;;;;4956055;29;20043;-60
2022/10/20 02:24:52;;;;;;;3.63;2.17;;;6.40;99.90;;;;;;4935143;29;20051;-63
2022/10/20 02:27:24;;;;;;;5.80;1.92;;;6.30;99.90;;;;;;4936806;29;20099;-63
2022/10/20 02:29:59;;;;;;;4.15;2.28;;;6.40;99.90;;;;;;4936861;29;20118;-64
2022/10/20 02:32:28;;;;;;;2.33;1.58;;;6.30;99.90;;;;;;4936802;29;20043;-63
2022/10/20 02:34:53;;;;;;;3.25;1.58;;;6.40;99.90;;;;;;4936775;29;20090;-63
2022/10/20 02:40:41;;;;;;;;;;;6.40;99.90;;;;;;4994838;23;20142;-77
2022/10/20 02:43:07;;;;;;;3.63;2.20;;;6.40;99.90;;;;;;4922549;29;20005;-77
2022/10/20 02:45:32;;;;;;;6.95;2.67;;;6.40;99.90;;;;;;4922565;29;20405;-77
2022/10/20 02:47:58;;;;;;;4.00;2.35;;;6.40;99.90;;;;;;4922754;29;20043;-77
2022/10/20 02:50:24;;;;;;;4.22;2.55;;;6.40;99.90;;;;;;4907024;29;20133;-77
2022/10/20 02:52:49;;;;;;;4.57;2.53;;;6.40;99.90;;;;;;4906723;29;20098;-77
2022/10/20 02:55:15;;;;;;;4.60;2.20;;;6.70;99.90;;;;;;4937654;29;20501;-77
2022/10/20 02:57:41;;;;;;;5.80;2.58;;;6.40;99.90;;;;;;4906513;29;20130;-77
2022/10/20 03:00:07;;;;;;;5.25;2.63;;;6.40;99.90;;;;;;4906500;29;20053;-77
2022/10/20 03:02:33;;;;;;;4.18;2.80;;;6.40;99.90;;;;;;4938003;29;20047;-77
2022/10/20 03:04:58;;;;;;;4.95;3.92;;;7.30;99.90;;;;;;4906571;29;20049;-77
2022/10/20 03:07:24;;;;;;;5.00;2.40;;;6.50;99.90;;;;;;4922222;29;20039;-77
2022/10/20 03:09:50;;;;;;;6.47;2.88;;;6.40;99.90;;;;;;4906813;29;20522;-77
2022/10/20 03:12:15;;;;;;;3.60;2.35;;;6.40;99.90;;;;;;4938057;29;20099;-77
2022/10/20 03:14:41;;;;;;;4.38;2.85;;;6.50;99.90;;;;;;4906615;29;20043;-77
2022/10/20 03:17:08;;;;;;;4.47;2.85;;;6.50;99.90;;;;;;4922088;29;20043;-77
2022/10/20 03:19:33;;;;;;;9.02;2.85;;;6.40;99.90;;;;;;4921954;29;20182;-77
2022/10/20 03:21:59;;;;;;;3.88;2.53;;;6.40;99.90;;;;;;4922284;29;20130;-77
2022/10/20 03:24:26;;;;;;;5.53;3.28;;;6.40;99.90;;;;;;4922112;29;20048;-77
2022/10/20 03:26:51;;;;;;;4.40;2.50;;;6.40;99.90;;;;;;4922319;29;20402;-77
2022/10/20 03:29:17;;;;;;;5.20;2.63;;;6.30;99.90;;;;;;4922193;29;20032;-77
2022/10/20 03:31:43;;;;;;;3.17;2.38;;;6.30;99.90;;;;;;4922253;29;20038;-77
2022/10/20 03:34:09;;;;;;;8.00;2.50;;;6.30;99.90;;;;;;4921970;29;20079;-77
2022/10/20 03:36:34;;;;;;;5.30;3.28;;;6.90;99.90;;;;;;4922086;29;20407;-77
2022/10/20 03:39:00;;;;;;;6.22;3.22;;;6.60;99.90;;;;;;4921936;29;20062;-77
2022/10/20 03:41:26;;;;;;;5.38;2.88;;;6.30;99.90;;;;;;4921814;29;20064;-77
2022/10/20 03:43:51;;;;;;;5.45;3.58;;;6.30;99.90;;;;;;4906114;29;20050;-77
2022/10/20 03:46:17;;;;;;;3.88;2.50;;;7.10;99.90;;;;;;4906123;29;20093;-77
2022/10/20 03:48:43;;;;;;;7.70;3.75;;;6.30;99.90;;;;;;4921782;29;20094;-77
2022/10/20 03:51:12;;;;;;;5.43;3.28;;;6.30;99.90;;;;;;4921825;29;20047;-77
2022/10/20 03:53:37;;;;;;;12.13;3.47;;;6.30;99.90;;;;;;4937707;29;20039;-77
2022/10/20 03:56:08;;;;;;;8.77;2.95;;;6.30;99.90;;;;;;4906115;29;20043;-77
2022/10/20 03:58:33;;;;;;;5.22;3.10;;;6.30;99.90;;;;;;4937541;29;20047;-77
2022/10/20 04:00:59;;;;;;;4.60;2.75;;;6.40;99.90;;;;;;4921722;29;20043;-77
2022/10/20 04:03:25;;;;;;;6.25;3.03;;;6.30;99.90;;;;;;4921993;29;20043;-77
2022/10/20 04:05:51;;;;;;;8.45;3.20;;;7.10;99.90;;;;;;4892086;29;20133;-77
2022/10/20 04:08:16;;;;;;;6.63;3.70;;;6.30;99.90;;;;;;4925309;29;20047;-77
2022/10/20 04:10:42;;;;;;;9.38;3.67;;;6.40;99.90;;;;;;4940952;29;20126;-77
2022/10/20 04:13:07;;;;;;;6.30;3.63;;;6.30;99.90;;;;;;4893869;29;20043;-77
2022/10/20 04:15:33;;;;;;;6.40;3.42;;;7.60;99.90;;;;;;4940944;29;20495;-77
2022/10/20 04:17:59;;;;;;;5.55;3.65;;;6.30;99.90;;;;;;4940885;29;20043;-77
2022/10/20 04:20:25;;;;;;;6.43;3.45;;;6.30;99.90;;;;;;4940756;29;20463;-77
2022/10/20 04:22:50;;;;;;;5.38;3.05;;;6.30;99.90;;;;;;4925283;29;20043;-78
2022/10/20 04:25:16;;;;;;;5.43;3.10;;;6.30;99.90;;;;;;4909338;29;20098;-77
2022/10/20 04:27:42;;;;;;;5.97;3.42;;;6.30;99.90;;;;;;4909484;29;20549;-77
2022/10/20 04:30:08;;;;;;;6.22;3.53;;;6.30;99.90;;;;;;4924867;29;20043;-77
2022/10/20 04:32:34;;;;;;;6.18;3.78;;;6.30;99.90;;;;;;4940992;29;20043;-77
2022/10/20 04:35:00;;;;;;;6.47;3.88;;;6.30;99.90;;;;;;4909032;29;20097;-77
2022/10/20 04:37:26;;;;;;;8.02;3.60;;;6.30;99.90;;;;;;4909065;29;20090;-77
2022/10/20 04:39:51;;;;;;;8.38;3.92;;;6.30;99.90;;;;;;4924633;28;20414;-77
2022/10/20 04:42:18;;;;;;;4.60;3.13;;;6.30;99.90;;;;;;4924960;29;20039;-77
2022/10/20 04:44:44;;;;;;;6.57;3.75;;;6.30;99.90;;;;;;4940400;29;20103;-77
2022/10/20 04:47:10;;;;;;;15.05;4.43;;;6.30;99.90;;;;;;4924814;29;20038;-77
2022/10/20 04:49:36;;;;;;;6.32;3.45;;;6.30;99.90;;;;;;4924760;29;20422;-77
2022/10/20 04:52:02;;;;;;;5.63;3.78;;;6.20;99.90;;;;;;4940562;29;20042;-77
2022/10/20 04:54:28;;;;;;;6.15;4.18;;;6.30;99.90;;;;;;4924684;29;20074;-77
2022/10/20 04:56:54;;;;;;;6.63;3.75;;;6.20;99.90;;;;;;4924595;29;20043;-77
2022/10/20 04:59:20;;;;;;;7.53;3.85;;;6.20;99.90;;;;;;4924310;29;20047;-77
2022/10/20 05:01:45;;;;;;;8.80;3.85;;;6.60;99.90;;;;;;4924539;29;20039;-77
2022/10/20 05:04:11;;;;;;;15.68;4.65;;;6.20;99.90;;;;;;4940026;29;20035;-77
2022/10/20 05:06:37;;;;;;;9.68;3.60;;;6.30;99.90;;;;;;4940331;29;20042;-77
2022/10/20 05:09:05;;;;;;;8.48;3.88;;;6.30;99.90;;;;;;4924391;29;20046;-77
2022/10/20 05:11:34;;;;;;;7.38;4.20;;;6.20;99.90;;;;;;4924123;29;20043;-77
2022/10/20 05:14:00;;;;;;;7.13;4.32;;;6.20;99.90;;;;;;4939881;29;20054;-77
2022/10/20 05:16:26;;;;;;;8.75;4.47;;;6.20;99.90;;;;;;4924270;28;20043;-77
2022/10/20 05:18:53;;;;;;;5.50;3.95;;;6.20;99.90;;;;;;4923370;29;20054;-77
2022/10/20 05:21:24;;;;;;;7.15;4.68;;;6.30;99.90;;;;;;4939675;29;20051;-77
2022/10/20 05:24:17;;;;;;;7.00;4.10;;;6.30;99.90;;;;;;4924124;29;20612;-77
2022/10/20 05:26:43;;;;;;;7.00;4.00;;;7.70;99.90;;;;;;4936304;29;20051;-77
2022/10/20 05:29:10;;;;;;;9.75;5.68;;;6.20;99.90;;;;;;4908310;29;20058;-77
2022/10/20 05:31:41;;;;;;;6.38;4.13;;;6.20;99.90;;;;;;4939556;29;20098;-77
2022/10/20 05:34:08;;;;;;;6.13;4.07;;;6.20;99.90;;;;;;4939592;29;20054;-77
2022/10/20 05:36:34;;;;;;;7.40;4.50;;;6.20;99.90;;;;;;4939768;29;20111;-77
2022/10/20 05:38:59;;;;;;;7.53;5.00;;;6.30;99.90;;;;;;4923606;29;20043;-77
2022/10/20 05:41:28;;;;;;;6.53;4.25;;;6.20;99.90;;;;;;4923458;29;20051;-77
2022/10/20 05:44:00;;;;;;;6.25;3.97;;;6.20;99.90;;;;;;4939572;29;20062;-77
2022/10/20 05:46:28;;;;;;;6.72;4.35;;;6.10;99.90;;;;;;4939356;29;20075;-77
2022/10/20 05:48:57;;;;;;;8.05;4.75;;;6.20;99.90;;;;;;4939196;29;20039;-77
2022/10/20 05:51:26;;;;;;;7.25;4.03;;;6.20;99.90;;;;;;4939218;29;20047;-77
2022/10/20 05:53:55;;;;;;;6.47;4.22;;;6.10;99.90;;;;;;4923517;29;20465;-77
2022/10/20 05:56:22;;;;;;;8.98;5.03;;;6.10;99.90;;;;;;4923409;29;20047;-77
2022/10/20 05:58:48;;;;;;;11.15;3.85;;;7.40;99.90;;;;;;4907949;29;20506;-77
2022/10/20 06:01:22;;;;;;;7.10;4.20;;;6.80;99.90;;;;;;4938865;29;20087;-77
2022/10/20 06:03:56;;;;;;;7.20;4.50;;;6.10;99.90;;;;;;4923144;29;20040;-77
2022/10/20 06:06:25;;;;;;;8.85;5.10;;;6.10;99.90;;;;;;4938938;29;20039;-77
2022/10/20 06:08:52;;;;;;;10.25;5.00;;;6.10;99.90;;;;;;4939125;29;20086;-77
2022/10/20 06:11:19;;;;;;;13.88;4.90;;;6.10;99.90;;;;;;4923130;29;20220;-77
2022/10/20 06:13:45;;;;;;;13.15;5.95;;;6.10;99.90;;;;;;4923228;29;20514;-77
2022/10/20 06:16:14;;;;;;;9.77;5.15;;;6.10;99.90;;;;;;4907205;29;20043;-78
2022/10/20 06:18:41;;;;;;;11.40;4.03;;;6.10;99.90;;;;;;4938748;29;20129;-77
2022/10/20 06:21:13;;;;;;;7.97;5.00;;;6.10;99.90;;;;;;4923031;29;20186;-77
2022/10/20 06:23:38;;;;;;;10.50;5.05;;;6.30;99.90;;;;;;4938665;29;20043;-77
2022/10/20 06:26:07;;;;;;;7.78;4.90;;;6.10;99.90;;;;;;4938563;29;20147;-77
2022/10/20 06:28:35;;;;;;;10.00;4.47;;;6.20;99.90;;;;;;4922659;29;20039;-77
2022/10/20 06:31:19;;;;;;;7.68;4.97;;;6.10;99.90;;;;;;4938476;29;20053;-77
2022/10/20 06:33:45;;;;;;;12.20;4.90;;;6.10;99.90;;;;;;4922643;29;20126;-77
2022/10/20 06:36:12;;;;;;;10.45;4.97;;;6.40;99.90;;;;;;4922511;29;20047;-77
2022/10/20 06:38:39;;;;;;;7.78;5.15;;;6.20;99.90;;;;;;4922869;29;20390;-77
2022/10/20 06:41:07;;;;;;;8.80;5.10;;;6.20;99.90;;;;;;4938049;29;20063;-77
2022/10/20 06:43:35;;;;;;;9.85;5.47;;;6.30;99.90;;;;;;4922741;29;20035;-77
2022/10/20 06:46:04;;;;;;;6.78;4.68;;;6.30;99.90;;;;;;4938497;29;20050;-77
2022/10/20 06:48:30;;;;;;;8.88;5.60;;;6.30;99.90;;;;;;4938458;29;20091;-77
2022/10/20 06:50:57;;;;;;;10.98;5.53;;;6.40;99.90;;;;;;4906520;29;20043;-77
2022/10/20 06:53:22;;;;;;;7.40;5.05;;;6.40;99.90;;;;;;4922304;29;20043;-77
2022/10/20 06:56:16;;;;;;;8.52;4.60;;;6.40;99.90;;;;;;4938065;29;20054;-77
2022/10/20 06:58:44;;;;;;;12.32;5.47;;;6.50;99.90;;;;;;4935107;29;20051;-77
2022/10/20 07:01:22;;;;;;;7.45;5.22;;;6.50;99.90;;;;;;4937911;29;20047;-77
2022/10/20 07:03:49;;;;;;;11.18;5.88;;;6.60;99.90;;;;;;4938258;29;20051;-77
2022/10/20 07:06:20;;;;;;;10.27;5.47;;;6.60;99.90;;;;;;4922080;29;20070;-77
2022/10/20 07:08:46;;;;;;;13.02;5.35;;;7.10;99.90;;;;;;4938027;29;20043;-77
2022/10/20 07:11:14;;;;;;;9.02;4.80;;;6.60;99.90;;;;;;4922081;29;20121;-77
2022/10/20 07:13:41;;;;;;;8.32;4.65;;;7.00;99.90;;;;;;4937854;29;20234;-77
2022/10/20 07:16:10;;;;;;;7.80;4.63;;;7.60;99.90;;;;;;4937822;29;20142;-77
2022/10/20 07:18:36;;;;;;;5.72;4.35;;;7.30;99.90;;;;;;4938125;29;20394;-77
2022/10/20 07:21:12;;;;;;;7.43;5.07;;;6.90;99.90;;;;;;4922095;29;20039;-77
2022/10/20 07:23:38;;;;;;;10.90;4.90;;;6.90;99.90;;;;;;4938101;29;20448;-77
2022/10/20 07:26:05;;;;;;;11.70;5.57;;;7.00;99.90;;;;;;4921936;29;20050;-77
2022/10/20 07:28:32;;;;;;;8.77;5.15;;;7.10;99.90;;;;;;4937700;29;20043;-77
2022/10/20 07:31:06;;;;;;;10.93;4.88;;;7.20;99.90;;;;;;4937692;29;20054;-77
2022/10/20 07:33:32;;;;;;;9.45;4.35;;;7.20;99.90;;;;;;4937718;29;20129;-77
2022/10/20 07:35:58;;;;;;;8.35;4.95;;;7.20;99.90;;;;;;4906493;29;20394;-77
2022/10/20 07:38:24;;;;;;;6.15;4.57;;;7.30;99.90;;;;;;4937906;29;20055;-77
2022/10/20 07:40:49;;;;;;;8.75;4.53;;;7.30;99.90;;;;;;4923079;29;20067;-78
2022/10/20 07:43:15;;;;;;;8.35;4.63;;;7.30;99.90;;;;;;4925702;29;20058;-77
2022/10/20 07:45:41;;;;;;;7.50;4.85;;;7.30;99.90;;;;;;4925946;29;20045;-77
2022/10/20 07:48:08;;;;;;;6.90;5.03;;;7.40;99.90;;;;;;4894296;29;20039;-77
2022/10/20 07:50:36;;;;;;;8.73;5.13;;;7.40;99.90;;;;;;4925711;29;20051;-77
2022/10/20 07:53:03;;;;;;;8.23;4.70;;;7.40;99.90;;;;;;4941634;29;20403;-77
2022/10/20 07:55:28;;;;;;;7.75;4.07;;;7.50;99.90;;;;;;4925554;29;20047;-77
2022/10/20 07:57:54;;;;;;;13.07;4.55;;;7.50;99.90;;;;;;4910002;29;20055;-77
2022/10/20 08:00:20;;;;;;;12.80;4.70;;;7.50;99.90;;;;;;4925355;29;20039;-78
2022/10/20 08:02:45;;;;;;;8.88;4.72;;;7.60;99.90;;;;;;4925301;29;20479;-77
2022/10/20 08:05:12;;;;;;;6.07;4.35;;;7.70;99.90;;;;;;4941141;29;20035;-77
2022/10/20 08:07:38;;;;;;;7.38;4.40;;;7.70;99.90;;;;;;4941112;29;20046;-77
2022/10/20 08:10:05;;;;;;;7.55;4.43;;;7.70;99.90;;;;;;4940948;29;20043;-78
2022/10/20 08:12:30;;;;;;;8.05;4.15;;;7.80;99.90;;;;;;4940982;29;20179;-78
2022/10/20 08:14:56;;;;;;;8.25;5.03;;;7.90;99.90;;;;;;4941051;29;20102;-77
2022/10/20 08:17:22;;;;;;;9.38;4.85;;;8.00;99.90;;;;;;4925410;29;20039;-77
2022/10/20 08:19:47;;;;;;;6.57;4.40;;;8.50;99.90;;;;;;4924967;29;20086;-77
2022/10/20 08:22:14;;;;;;;7.38;4.47;;;8.20;99.90;;;;;;4941102;29;20075;-77
2022/10/20 08:24:40;;;;;;;8.05;4.22;;;8.30;99.90;;;;;;4925500;29;20554;-77
2022/10/20 08:27:06;;;;;;;6.13;4.05;;;8.30;99.90;;;;;;4925099;29;20043;-78
2022/10/20 08:29:32;;;;;;;9.23;4.43;;;8.40;99.90;;;;;;4924889;29;20035;-77
2022/10/20 08:31:57;;;;;;;9.98;4.18;;;8.50;99.90;;;;;;4924796;29;20047;-78
2022/10/20 08:34:23;;;;;;;12.32;4.82;;;8.60;99.90;;;;;;4940580;29;20071;-77
2022/10/20 08:36:49;;;;;;;6.65;3.80;;;8.60;99.90;;;;;;4909080;29;20062;-77
2022/10/20 08:39:15;;;;;;;6.75;3.95;;;8.80;99.90;;;;;;4925004;29;20483;-77
2022/10/20 08:41:47;;;;;;;5.55;3.88;;;8.70;99.90;;;;;;4924566;29;20059;-77
2022/10/20 08:44:24;;;;;;;6.72;4.00;;;9.60;99.90;;;;;;4940448;29;20126;-77
2022/10/20 08:46:51;;;;;;;6.35;3.85;;;8.90;99.90;;;;;;4940372;29;20214;-77
2022/10/20 08:49:28;;;;;;;4.75;3.25;;;8.90;99.90;;;;;;4940408;29;20039;-77
2022/10/20 08:51:54;;;;;;;13.52;3.83;;;9.00;99.90;;;;;;4923366;29;20078;-77
2022/10/20 08:54:20;;;;;;;5.70;3.80;;;9.00;99.90;;;;;;4940480;29;20479;-77
2022/10/20 08:56:46;;;;;;;6.22;3.65;;;9.00;99.90;;;;;;4940199;29;20152;-77
2022/10/20 08:59:34;;;;;;;5.80;3.67;;;9.10;99.90;;;;;;4924458;29;20098;-77
2022/10/20 09:02:02;;;;;;;5.78;3.72;;;9.10;99.90;;;;;;4940414;29;20502;-77
2022/10/20 09:04:33;;;;;;;5.00;3.78;;;9.20;99.90;;;;;;4924520;29;20483;-77
2022/10/20 09:07:09;;;;;;;6.50;3.83;;;9.20;99.90;;;;;;4940049;29;20098;-77
2022/10/20 09:09:35;;;;;;;4.95;3.38;;;9.30;99.90;;;;;;4924215;29;20047;-77
2022/10/20 09:12:06;;;;;;;5.80;3.78;;;9.30;99.90;;;;;;4908377;29;20047;-77
2022/10/20 09:14:35;;;;;;;6.88;4.13;;;9.40;99.90;;;;;;4939905;29;20050;-77
2022/10/20 09:17:01;;;;;;;6.80;3.58;;;9.40;99.90;;;;;;4939824;29;20179;-77
2022/10/20 09:19:27;;;;;;;7.63;3.72;;;9.50;99.90;;;;;;4939993;29;20130;-77
2022/10/20 09:22:03;;;;;;;7.70;3.70;;;9.60;99.90;;;;;;4923901;29;20147;-77
2022/10/20 09:24:30;;;;;;;5.65;3.33;;;9.60;99.90;;;;;;4939687;29;20050;-76
2022/10/20 09:27:21;;;;;;;7.35;3.97;;;9.70;99.90;;;;;;4908760;29;20080;-77
2022/10/20 09:29:47;;;;;;;7.55;3.30;;;9.90;99.90;;;;;;4939570;29;20118;-77
2022/10/20 09:32:35;;;;;;;7.05;3.70;;;9.80;99.90;;;;;;4923846;29;20047;-77
2022/10/20 09:35:14;;;;;;;8.75;3.58;;;9.90;99.90;;;;;;4939561;29;20085;-77
2022/10/20 09:37:41;;;;;;;5.90;3.55;;;10.00;99.90;;;;;;4923806;29;20039;-77
2022/10/20 09:40:14;;;;;;;5.47;3.45;;;10.10;99.90;;;;;;4939113;29;20058;-77
2022/10/20 09:42:50;;;;;;;6.75;3.15;;;10.10;99.90;;;;;;4923905;29;20130;-77
2022/10/20 09:45:20;;;;;;;5.75;3.53;;;10.20;99.90;;;;;;4923494;29;20130;-77
2022/10/20 09:47:51;;;;;;;7.68;3.58;;;10.20;99.90;;;;;;4939582;29;20043;-77
2022/10/20 09:50:27;;;;;;;;;;;10.30;99.90;;;;;;4939934;29;20133;-77
2022/10/20 09:52:53;;;;;;;8.07;3.10;;;10.40;99.90;;;;;;4923363;29;19918;-77
2022/10/20 09:55:36;;;;;;;5.25;3.20;;;10.40;99.90;;;;;;4939113;29;20043;-77
2022/10/20 09:58:04;;;;;;;6.22;3.13;;;10.50;99.90;;;;;;4939367;29;20043;-77
2022/10/20 10:00:45;;;;;;;4.97;3.50;;;10.60;99.90;;;;;;4923213;29;20047;-77
2022/10/20 10:03:20;;;;;;;7.43;3.28;;;10.70;99.90;;;;;;4939007;29;20058;-77
2022/10/20 10:06:20;;;;;;;7.03;3.40;;;10.70;99.90;;;;;;4923160;29;20045;-77
2022/10/20 10:08:46;;;;;;;5.80;3.40;;;10.70;99.90;;;;;;4908020;29;20055;-77
2022/10/20 10:11:18;;;;;;;5.32;3.05;;;10.80;99.90;;;;;;4938845;29;20039;-77
2022/10/20 10:13:47;;;;;;;7.88;3.60;;;10.90;99.90;;;;;;4938888;29;20186;-77
2022/10/20 10:16:22;;;;;;;5.05;3.03;;;10.90;99.90;;;;;;4938720;29;20094;-77
2022/10/20 10:19:05;;;;;;;3.95;2.88;;;10.90;99.90;;;;;;4938987;29;20046;-77
2022/10/20 10:21:44;;;;;;;8.15;3.47;;;11.00;99.90;;;;;;4922752;29;20043;-77
2022/10/20 10:24:30;;;;;;;3.95;3.10;;;11.40;99.90;;;;;;4922721;29;20050;-77
2022/10/20 10:26:57;;;;;;;5.30;3.47;;;11.40;99.90;;;;;;4938564;29;20039;-77
2022/10/20 10:29:25;;;;;;;5.07;3.05;;;11.10;99.90;;;;;;4922731;29;20091;-77
2022/10/20 10:31:57;;;;;;;6.20;3.83;;;11.10;99.90;;;;;;4938537;29;20134;-77
2022/10/20 10:34:40;;;;;;;3.92;2.85;;;11.10;99.90;;;;;;4938439;29;20039;-77
2022/10/20 10:37:11;;;;;;;4.35;2.92;;;11.30;99.90;;;;;;4922556;29;20050;-77
2022/10/20 10:39:37;;;;;;;6.80;3.88;;;11.40;99.90;;;;;;4922336;29;20050;-77
2022/10/20 10:42:11;;;;;;;5.68;3.33;;;11.40;99.90;;;;;;4938336;29;20047;-76
2022/10/20 10:45:32;;;;;;;6.28;3.28;;;11.60;99.90;;;;;;4938353;29;20043;-76
2022/10/20 10:48:13;;;;;;;3.67;2.58;;;11.80;99.90;;;;;;4862250;29;20049;-77
2022/10/20 10:50:55;;;;;;;7.05;3.30;;;11.90;99.90;;;;;;4938205;29;20055;-77
2022/10/20 10:53:59;;;;;;;9.57;3.63;;;12.10;99.90;;;;;;4922376;29;20051;-77
2022/10/20 10:56:32;;;;;;;3.53;2.75;;;12.20;98.80;;;;;;4922693;29;20550;-77
2022/10/20 10:59:10;;;;;;;7.43;3.35;;;12.30;98.40;;;;;;4922638;29;20035;-77
2022/10/20 11:01:48;;;;;;;6.88;3.30;;;12.40;98.40;;;;;;4938057;29;20043;-77
2022/10/20 11:04:35;;;;;;;5.07;3.20;;;12.40;98.80;;;;;;4938111;29;20054;-77
2022/10/20 11:07:20;;;;;;;4.68;2.97;;;12.50;98.30;;;;;;4938005;29;20047;-77
2022/10/20 11:10:11;;;;;;;6.35;2.88;;;12.50;96.80;;;;;;4922443;29;20375;-77
2022/10/20 11:13:08;;;;;;;5.32;3.00;;;12.40;97.40;;;;;;4938288;29;20054;-77
2022/10/20 11:15:40;;;;;;;4.78;2.92;;;12.40;98.10;;;;;;4937654;29;20559;-77
2022/10/20 11:18:35;;;;;;;5.40;3.75;;;12.40;98.20;;;;;;4921981;29;20098;-77
2022/10/20 11:21:19;;;;;;;4.45;3.28;;;12.50;98.70;;;;;;4922088;29;20410;-77
2022/10/20 11:24:09;;;;;;;7.00;3.30;;;12.70;99.60;;;;;;4937876;29;20043;-77
2022/10/20 11:26:50;;;;;;;4.18;3.20;;;12.70;99.40;;;;;;4937905;29;20043;-77
2022/10/20 11:29:31;;;;;;;5.75;3.42;;;12.70;98.30;;;;;;4922107;29;20035;-77
2022/10/20 11:32:22;;;;;;;4.55;3.20;;;12.70;99.00;;;;;;4937826;29;20039;-77
2022/10/20 11:35:15;;;;;;;4.28;2.92;;;12.80;99.70;;;;;;4937844;29;20047;-77
2022/10/20 11:38:16;;;;;;;6.20;3.20;;;12.90;99.90;;;;;;4937774;29;20047;-77
2022/10/20 11:40:57;;;;;;;4.78;3.03;;;12.90;98.80;;;;;;4918911;29;20554;-77
2022/10/20 11:43:35;;;;;;;4.97;3.35;;;13.00;98.60;;;;;;4921942;29;20039;-77
2022/10/20 11:46:11;;;;;;;4.38;3.28;;;13.00;98.60;;;;;;4937669;29;20040;-77
2022/10/20 11:48:54;;;;;;;5.63;3.78;;;12.90;96.90;;;;;;4937978;29;20390;-77
2022/10/20 11:51:50;;;;;;;4.07;3.00;;;12.90;98.50;;;;;;4937691;29;20043;-77
2022/10/20 11:54:34;;;;;;;5.68;3.42;;;12.80;98.70;;;;;;4922108;29;20046;-77
2022/10/20 11:57:21;;;;;;;5.78;5.03;;;12.80;99.00;;;;;;4937625;29;20082;-77
2022/10/20 12:00:13;;;;;;;8.13;4.00;;;12.90;99.90;;;;;;4937584;29;20130;-77
2022/10/20 12:02:57;;;;;;;5.38;3.15;;;12.90;99.10;;;;;;4937596;29;20050;-77
2022/10/20 12:05:49;;;;;;;4.82;3.17;;;12.90;99.90;;;;;;4921913;29;20490;-77
2022/10/20 12:08:36;;;;;;;9.75;3.28;;;12.90;99.90;;;;;;4903943;29;20052;-77
2022/10/20 12:11:18;;;;;;;8.43;3.38;;;12.90;99.90;;;;;;4921661;29;20047;-77
2022/10/20 12:13:59;;;;;;;5.55;3.25;;;13.00;99.90;;;;;;4921927;29;20047;-77
2022/10/20 12:16:53;;;;;;;4.88;3.45;;;13.00;99.90;;;;;;4937452;29;20101;-77
2022/10/20 12:19:29;;;;;;;8.65;3.35;;;13.00;99.90;;;;;;4937453;29;20114;-77
2022/10/20 12:22:03;;;;;;;7.65;3.80;;;13.00;99.90;;;;;;4937649;29;20051;-77
2022/10/20 12:24:35;;;;;;;5.97;3.70;;;13.00;99.90;;;;;;4937625;29;20458;-77
2022/10/20 12:27:07;;;;;;;6.43;3.83;;;13.00;99.90;;;;;;4939190;29;20476;-77
2022/10/20 12:29:32;;;;;;;6.13;3.28;;;12.90;99.90;;;;;;4940714;29;20130;-77
2022/10/20 12:32:20;;;;;;;5.05;3.67;;;12.90;99.90;;;;;;4924889;29;20079;-77
2022/10/20 12:34:57;;;;;;;5.35;3.25;;;12.90;99.90;;;;;;4924869;29;20075;-77
2022/10/20 12:37:23;;;;;;;10.40;4.25;;;12.90;99.90;;;;;;4940565;29;20043;-77
2022/10/20 12:39:53;;;;;;;6.15;3.40;;;12.80;99.90;;;;;;4940282;28;20098;-77
2022/10/20 12:42:47;;;;;;;6.57;3.95;;;12.80;99.90;;;;;;4940548;29;20055;-77
2022/10/20 12:45:18;;;;;;;4.90;2.63;;;12.80;99.90;;;;;;4917359;29;20098;-77
2022/10/20 12:47:54;;;;;;;5.57;3.50;;;12.80;99.90;;;;;;4940482;29;20046;-77
2022/10/20 12:50:29;;;;;;;5.68;3.92;;;12.70;99.90;;;;;;4924682;29;20051;-77
2022/10/20 12:52:57;;;;;;;6.30;4.03;;;12.70;99.90;;;;;;4940331;29;20047;-77
2022/10/20 12:55:34;;;;;;;6.57;3.88;;;12.60;99.90;;;;;;4940212;29;20046;-77
2022/10/20 12:58:18;;;;;;;5.78;4.10;;;12.60;99.90;;;;;;4924747;29;20051;-77
2022/10/20 13:00:48;;;;;;;6.45;4.10;;;12.60;99.90;;;;;;4940272;29;20171;-77
2022/10/20 13:03:37;;;;;;;6.47;4.30;;;12.60;99.90;;;;;;4940213;29;20043;-77
2022/10/20 13:06:21;;;;;;;7.38;4.25;;;12.50;99.90;;;;;;4924203;29;20035;-77
2022/10/20 13:09:02;;;;;;;6.72;3.47;;;12.50;99.90;;;;;;4924421;29;20043;-77
2022/10/20 13:11:37;;;;;;;6.75;3.85;;;12.50;99.90;;;;;;4940100;29;20046;-77
2022/10/20 13:14:12;;;;;;;6.38;4.13;;;12.40;99.90;;;;;;4924100;29;20105;-77
2022/10/20 13:16:57;;;;;;;7.25;4.00;;;12.30;99.90;;;;;;4939989;29;20098;-77
2022/10/20 13:19:30;;;;;;;6.75;3.92;;;12.30;99.90;;;;;;4940073;29;20051;-77
2022/10/20 13:21:56;;;;;;;6.13;4.00;;;12.20;99.90;;;;;;4940111;29;20197;-77
2022/10/20 13:24:30;;;;;;;10.85;4.50;;;12.20;99.90;;;;;;4939980;29;20074;-77
2022/10/20 13:27:01;;;;;;;7.57;4.30;;;12.20;99.90;;;;;;4923866;29;20043;-77
2022/10/20 13:29:35;;;;;;;6.78;4.03;;;12.10;99.90;;;;;;4923872;29;20042;-77
2022/10/20 13:32:32;;;;;;;8.48;4.75;;;12.10;99.90;;;;;;4923797;29;20051;-77
2022/10/20 13:35:17;;;;;;;8.10;4.25;;;12.10;99.90;;;;;;4939463;29;20134;-77
2022/10/20 13:37:46;;;;;;;7.10;4.45;;;12.00;99.90;;;;;;4939330;28;20059;-77
2022/10/20 13:40:16;;;;;;;6.28;4.20;;;12.00;99.90;;;;;;4923285;29;20055;-77
2022/10/20 13:43:04;;;;;;;7.97;5.07;;;12.00;99.90;;;;;;4939905;29;20054;-77